createdAt,value
2017-08-24T00:00:08.917Z,9.80
2017-08-24T00:02:35.010Z,5.97
2017-08-24T00:05:01.033Z,5.20
2017-08-24T00:07:27.054Z,8.90
2017-08-24T00:09:53.125Z,6.97
2017-08-24T00:12:19.178Z,5.72
2017-08-24T00:14:45.207Z,6.95
2017-08-24T00:17:11.271Z,5.80
2017-08-24T00:19:37.294Z,6.53
2017-08-24T00:22:03.396Z,6.22
2017-08-24T00:24:29.475Z,5.87
2017-08-24T00:26:55.549Z,7.62
2017-08-24T00:29:21.579Z,6.07
2017-08-24T00:31:47.836Z,7.57
2017-08-24T00:34:13.914Z,7.22
2017-08-24T00:36:39.973Z,7.97
2017-08-24T00:39:06.037Z,6.12
2017-08-24T00:41:32.066Z,4.63
2017-08-24T00:43:58.101Z,5.12
2017-08-24T00:46:24.189Z,5.53
2017-08-24T00:48:50.240Z,5.85
2017-08-24T00:51:16.285Z,7.20
2017-08-24T00:53:42.358Z,4.62
2017-08-24T00:56:08.418Z,4.70
2017-08-24T00:58:34.458Z,6.47
2017-08-24T01:01:00.505Z,9.67
2017-08-24T01:03:26.556Z,4.30
2017-08-24T01:05:52.663Z,6.30
2017-08-24T01:08:18.733Z,4.75
2017-08-24T01:10:44.746Z,7.25
2017-08-24T01:13:11.010Z,3.60
2017-08-24T01:15:37.077Z,6.00
2017-08-24T01:18:03.141Z,4.70
2017-08-24T01:20:29.386Z,4.45
2017-08-24T01:22:55.409Z,8.40
2017-08-24T01:25:21.474Z,6.00
2017-08-24T01:27:47.518Z,6.40
2017-08-24T01:30:13.561Z,6.93
2017-08-24T01:32:39.607Z,6.13
2017-08-24T01:35:05.643Z,6.72
2017-08-24T01:37:31.710Z,8.77
2017-08-24T01:39:57.998Z,5.07
2017-08-24T01:42:24.140Z,6.75
2017-08-24T01:44:50.214Z,6.28
2017-08-24T01:47:16.345Z,6.70
2017-08-24T01:49:42.403Z,5.00
2017-08-24T01:52:08.447Z,6.18
2017-08-24T01:54:34.494Z,3.20
2017-08-24T01:57:00.530Z,6.10
2017-08-24T01:59:26.562Z,5.47
2017-08-24T02:01:52.630Z,3.70
2017-08-24T02:04:18.659Z,5.97
2017-08-24T02:06:44.706Z,6.50
2017-08-24T02:09:10.723Z,5.25
2017-08-24T02:11:36.744Z,3.75
2017-08-24T02:14:02.802Z,4.68
2017-08-24T02:16:28.842Z,6.47
2017-08-24T02:18:54.882Z,5.40
2017-08-24T02:21:20.966Z,4.78
2017-08-24T02:23:47.013Z,4.95
2017-08-24T02:26:13.062Z,7.05
2017-08-24T02:28:39.129Z,4.62
2017-08-24T02:31:05.157Z,7.82
2017-08-24T02:33:31.218Z,5.50
2017-08-24T02:35:57.284Z,3.75
2017-08-24T02:38:23.304Z,10.67
2017-08-24T02:40:49.351Z,4.45
2017-08-24T02:43:15.661Z,7.40
2017-08-24T02:45:41.678Z,7.50
2017-08-24T02:48:07.720Z,6.07
2017-08-24T02:50:33.758Z,5.85
2017-08-24T02:52:59.847Z,7.20
2017-08-24T02:55:26.213Z,7.07
2017-08-24T02:57:52.259Z,5.80
2017-08-24T03:00:18.389Z,5.50
2017-08-24T03:02:44.860Z,6.03
2017-08-24T03:05:11.114Z,4.87
2017-08-24T03:07:37.158Z,7.07
2017-08-24T03:10:03.198Z,8.15
2017-08-24T03:12:29.290Z,6.60
2017-08-24T03:14:55.318Z,6.35
2017-08-24T03:17:21.371Z,8.65
2017-08-24T03:19:47.440Z,5.60
2017-08-24T03:22:13.473Z,9.70
2017-08-24T03:24:39.486Z,6.77
2017-08-24T03:27:05.536Z,8.00
2017-08-24T03:29:31.574Z,7.10
2017-08-24T03:31:57.624Z,6.25
2017-08-24T03:34:23.665Z,7.27
2017-08-24T03:36:49.693Z,5.85
2017-08-24T03:39:15.713Z,6.40
2017-08-24T03:41:41.769Z,9.07
2017-08-24T03:44:07.793Z,7.20
2017-08-24T03:46:33.854Z,7.95
2017-08-24T03:48:59.902Z,5.70
2017-08-24T03:51:25.923Z,6.90
2017-08-24T03:53:51.963Z,6.27
2017-08-24T03:56:18.566Z,8.23
2017-08-24T03:58:44.626Z,5.78
2017-08-24T04:01:10.673Z,7.83
2017-08-24T04:03:36.938Z,11.40
2017-08-24T04:06:02.958Z,10.15
2017-08-24T04:08:29.005Z,8.85
2017-08-24T04:10:55.104Z,6.45
2017-08-24T04:13:21.155Z,9.10
2017-08-24T04:15:47.446Z,6.70
2017-08-24T04:18:13.504Z,10.53
2017-08-24T04:20:39.534Z,8.38
2017-08-24T04:23:05.598Z,7.40
2017-08-24T04:25:31.690Z,9.23
2017-08-24T04:27:57.738Z,8.45
2017-08-24T04:30:23.779Z,5.50
2017-08-24T04:32:49.825Z,8.20
2017-08-24T04:35:15.851Z,8.50
2017-08-24T04:37:41.928Z,8.63
2017-08-24T04:40:08.014Z,9.63
2017-08-24T04:42:34.050Z,8.05
2017-08-24T04:45:00.224Z,7.00
2017-08-24T04:47:26.269Z,13.07
2017-08-24T04:49:52.308Z,10.13
2017-08-24T04:52:18.415Z,13.23
2017-08-24T04:54:44.457Z,17.27
2017-08-24T04:57:10.482Z,11.85
2017-08-24T04:59:36.766Z,8.43
2017-08-24T05:02:03.102Z,11.55
2017-08-24T05:04:29.205Z,11.77
2017-08-24T05:06:55.267Z,13.77
2017-08-24T05:09:21.310Z,11.10
2017-08-24T05:11:47.361Z,7.50
2017-08-24T05:14:13.466Z,11.25
2017-08-24T05:16:39.486Z,13.43
2017-08-24T05:19:05.609Z,12.32
2017-08-24T05:21:31.641Z,15.73
2017-08-24T05:23:57.664Z,11.18
2017-08-24T05:26:23.705Z,12.80
2017-08-24T05:28:49.746Z,11.43
2017-08-24T05:31:15.770Z,11.88
2017-08-24T05:33:41.858Z,11.48
2017-08-24T05:36:07.931Z,13.30
2017-08-24T05:38:33.965Z,9.88
2017-08-24T05:41:00.023Z,8.45
2017-08-24T05:43:26.118Z,9.48
2017-08-24T05:45:52.288Z,8.50
2017-08-24T05:48:18.655Z,9.20
2017-08-24T05:50:44.702Z,11.70
2017-08-24T05:53:10.742Z,11.60
2017-08-24T05:55:37.018Z,16.45
2017-08-24T05:58:03.058Z,9.02
2017-08-24T06:00:29.112Z,9.73
2017-08-24T06:02:55.147Z,10.30
2017-08-24T06:05:21.186Z,8.40
2017-08-24T06:07:47.228Z,11.20
2017-08-24T06:10:13.726Z,10.85
2017-08-24T06:12:39.750Z,11.00
2017-08-24T06:15:05.806Z,10.50
2017-08-24T06:17:31.866Z,14.10
2017-08-24T06:19:57.889Z,11.63
2017-08-24T06:22:23.909Z,13.60
2017-08-24T06:24:49.935Z,14.20
2017-08-24T06:27:15.979Z,17.10
2017-08-24T06:29:42.010Z,12.68
2017-08-24T06:32:08.040Z,10.23
2017-08-24T06:34:34.390Z,13.88
2017-08-24T06:37:00.423Z,14.50
2017-08-24T06:39:26.454Z,10.07
2017-08-24T06:41:52.540Z,8.07
2017-08-24T06:44:18.560Z,9.38
2017-08-24T06:46:44.726Z,11.10
2017-08-24T06:49:11.155Z,9.47
2017-08-24T06:51:37.174Z,12.65
2017-08-24T06:54:03.273Z,13.82
2017-08-24T06:56:29.292Z,13.45
2017-08-24T06:58:55.322Z,16.52
2017-08-24T07:01:21.376Z,15.73
2017-08-24T07:03:47.413Z,14.30
2017-08-24T07:06:13.765Z,15.05
2017-08-24T07:08:39.802Z,15.85
2017-08-24T07:11:05.866Z,15.95
2017-08-24T07:13:31.941Z,12.77
2017-08-24T07:15:58.038Z,10.57
2017-08-24T07:18:24.125Z,13.13
2017-08-24T07:20:50.186Z,14.87
2017-08-24T07:23:16.262Z,14.60
2017-08-24T07:25:42.282Z,22.65
2017-08-24T07:28:08.323Z,18.98
2017-08-24T07:30:34.339Z,14.63
2017-08-24T07:33:00.357Z,11.10
2017-08-24T07:35:26.900Z,17.87
2017-08-24T07:37:53.014Z,17.33
2017-08-24T07:40:19.026Z,12.55
2017-08-24T07:42:45.063Z,16.10
2017-08-24T07:45:11.115Z,17.67
2017-08-24T07:47:37.150Z,14.75
2017-08-24T07:50:03.180Z,19.42
2017-08-24T07:52:29.246Z,17.73
2017-08-24T07:54:55.310Z,19.70
2017-08-24T07:57:21.370Z,19.85
2017-08-24T07:59:47.414Z,19.95
2017-08-24T08:02:13.459Z,17.92
2017-08-24T08:04:39.502Z,17.08
2017-08-24T08:07:06.116Z,19.83
2017-08-24T08:09:32.166Z,17.52
2017-08-24T08:11:58.231Z,21.17
2017-08-24T08:14:24.278Z,30.88
2017-08-24T08:16:50.330Z,24.45
2017-08-24T08:19:16.403Z,305.80
2017-08-24T08:21:42.530Z,31.35
2017-08-24T08:24:08.575Z,25.23
2017-08-24T08:26:34.637Z,30.85
2017-08-24T08:29:00.662Z,31.05
2017-08-24T08:31:26.707Z,36.03
2017-08-24T08:33:52.975Z,36.65
2017-08-24T08:36:19.018Z,38.88
2017-08-24T08:38:45.062Z,44.50
2017-08-24T08:41:11.338Z,46.25
2017-08-24T08:43:37.412Z,44.08
2017-08-24T08:46:03.455Z,45.67
2017-08-24T08:48:29.523Z,46.67
2017-08-24T08:50:55.586Z,48.63
2017-08-24T08:53:21.636Z,54.28
2017-08-24T08:55:47.660Z,50.40
2017-08-24T08:58:13.684Z,58.95
2017-08-24T09:00:39.925Z,63.23
2017-08-24T09:03:05.946Z,66.35
2017-08-24T09:05:32.044Z,73.43
2017-08-24T09:07:58.139Z,67.00
2017-08-24T09:10:24.177Z,70.90
2017-08-24T09:12:50.206Z,63.85
2017-08-24T09:15:16.447Z,71.30
2017-08-24T09:17:42.466Z,78.93
2017-08-24T09:20:08.508Z,87.57
2017-08-24T09:22:34.551Z,91.40
2017-08-24T09:25:00.587Z,100.28
2017-08-24T09:27:26.610Z,90.55
2017-08-24T09:29:52.675Z,286.90
2017-08-24T09:32:18.710Z,210.82
2017-08-24T09:34:44.801Z,160.27
2017-08-24T09:37:11.157Z,114.32
2017-08-24T09:39:37.192Z,108.63
2017-08-24T09:42:03.253Z,113.18
2017-08-24T09:44:29.438Z,115.75
2017-08-24T09:46:55.472Z,113.03
2017-08-24T09:49:21.514Z,111.53
2017-08-24T09:51:47.670Z,110.28
2017-08-24T09:54:14.445Z,104.38
2017-08-24T09:56:40.467Z,102.00
2017-08-24T09:59:06.552Z,105.25
2017-08-24T10:01:32.591Z,97.40
2017-08-24T10:03:58.636Z,86.43
2017-08-24T10:06:24.662Z,80.83
2017-08-24T10:08:50.718Z,85.38
2017-08-24T10:11:16.874Z,84.07
2017-08-24T10:13:42.915Z,71.10
2017-08-24T10:16:08.974Z,77.87
2017-08-24T10:18:35.050Z,70.85
2017-08-24T10:21:01.083Z,69.20
2017-08-24T10:23:27.118Z,60.95
2017-08-24T10:25:53.442Z,63.63
2017-08-24T10:28:19.466Z,51.47
2017-08-24T10:30:45.508Z,59.30
2017-08-24T10:33:11.714Z,53.08
2017-08-24T10:35:37.840Z,55.97
2017-08-24T10:38:03.918Z,52.30
2017-08-24T10:40:29.980Z,47.80
2017-08-24T10:42:56.003Z,43.75
2017-08-24T10:45:22.035Z,41.50
2017-08-24T10:47:48.154Z,45.45
2017-08-24T10:50:14.232Z,42.95
2017-08-24T10:52:40.296Z,44.05
2017-08-24T10:55:06.353Z,49.22
2017-08-24T10:57:32.375Z,39.10
2017-08-24T10:59:58.451Z,48.67
2017-08-24T11:02:24.486Z,41.90
2017-08-24T11:04:50.515Z,33.42
2017-08-24T11:07:16.827Z,30.25
2017-08-24T11:09:42.842Z,30.00
2017-08-24T11:12:08.967Z,23.62
2017-08-24T11:14:35.059Z,22.85
2017-08-24T11:17:01.129Z,21.52
2017-08-24T11:19:27.201Z,18.52
2017-08-24T11:21:53.248Z,15.60
2017-08-24T11:24:19.284Z,17.40
2017-08-24T11:26:45.319Z,15.43
2017-08-24T11:29:12.470Z,18.73
2017-08-24T11:31:38.490Z,14.73
2017-08-24T11:34:04.524Z,11.68
2017-08-24T11:36:30.934Z,15.55
2017-08-24T11:38:57.098Z,15.15
2017-08-24T11:41:23.143Z,17.73
2017-08-24T11:43:49.186Z,11.20
2017-08-24T11:46:15.201Z,15.05
2017-08-24T11:48:41.271Z,16.15
2017-08-24T11:51:07.320Z,13.53
2017-08-24T11:53:33.363Z,14.30
2017-08-24T11:56:00.282Z,8.88
2017-08-24T11:58:26.572Z,8.07
2017-08-24T12:00:52.618Z,8.65
2017-08-24T12:03:18.659Z,10.20
2017-08-24T12:05:44.707Z,11.60
2017-08-24T12:08:10.727Z,11.48
2017-08-24T12:10:36.785Z,9.60
2017-08-24T12:13:02.886Z,10.50
2017-08-24T12:15:28.926Z,10.60
2017-08-24T12:17:55.010Z,10.97
2017-08-24T12:20:21.082Z,6.62
2017-08-24T12:22:47.104Z,5.35
2017-08-24T12:25:13.165Z,5.03
2017-08-24T12:27:39.207Z,4.97
2017-08-24T12:30:05.273Z,8.63
2017-08-24T12:32:31.321Z,7.72
2017-08-24T12:34:57.363Z,6.20
2017-08-24T12:37:23.593Z,7.57
2017-08-24T12:39:49.663Z,9.32
2017-08-24T12:42:15.731Z,5.93
2017-08-24T12:44:41.813Z,6.35
2017-08-24T12:47:07.817Z,5.20
2017-08-24T12:49:33.858Z,4.25
2017-08-24T12:52:00.004Z,5.03
2017-08-24T12:54:26.015Z,7.40
2017-08-24T12:56:52.058Z,5.18
2017-08-24T12:59:18.069Z,5.07
2017-08-24T13:01:44.114Z,6.53
2017-08-24T13:04:10.173Z,8.13
2017-08-24T13:06:36.246Z,5.20
2017-08-24T13:09:02.280Z,6.20
2017-08-24T13:11:28.344Z,6.40
2017-08-24T13:13:54.465Z,9.20
2017-08-24T13:16:20.494Z,6.22
2017-08-24T13:18:46.547Z,8.30
2017-08-24T13:21:12.769Z,5.35
2017-08-24T13:23:38.795Z,6.37
2017-08-24T13:26:05.042Z,6.22
2017-08-24T13:28:31.100Z,7.68
2017-08-24T13:30:57.119Z,8.65
2017-08-24T13:33:23.189Z,4.65
2017-08-24T13:35:49.207Z,6.80
2017-08-24T13:38:15.240Z,5.12
2017-08-24T13:40:41.246Z,6.23
2017-08-24T13:43:07.267Z,7.10
2017-08-24T13:45:33.457Z,2.90
2017-08-24T13:47:59.475Z,5.03
2017-08-24T13:50:25.522Z,6.07
2017-08-24T13:52:51.806Z,4.70
2017-08-24T13:55:17.817Z,3.57
2017-08-24T13:57:43.857Z,3.60
2017-08-24T14:00:10.110Z,6.07
2017-08-24T14:02:36.155Z,5.47
2017-08-24T14:05:02.184Z,7.97
2017-08-24T14:07:28.408Z,4.55
2017-08-24T14:09:54.429Z,5.97
2017-08-24T14:12:20.459Z,6.57
2017-08-24T14:14:46.806Z,4.32
2017-08-24T14:17:12.823Z,6.97
2017-08-24T14:19:38.866Z,4.73
2017-08-24T14:22:05.359Z,5.75
2017-08-24T14:24:31.411Z,4.93
2017-08-24T14:26:57.434Z,3.90
2017-08-24T14:29:23.766Z,7.53
2017-08-24T14:31:50.369Z,4.43
2017-08-24T14:34:16.383Z,5.33
2017-08-24T14:36:42.425Z,5.60
2017-08-24T14:39:08.448Z,3.40
2017-08-24T14:41:34.482Z,8.32
2017-08-24T14:44:00.530Z,6.68
2017-08-24T14:46:26.554Z,4.95
2017-08-24T14:48:52.584Z,3.47
2017-08-24T14:51:18.658Z,3.80
2017-08-24T14:53:44.690Z,5.25
2017-08-24T14:56:10.753Z,6.50
2017-08-24T14:58:37.045Z,6.20
2017-08-24T15:01:03.099Z,4.12
2017-08-24T15:03:29.121Z,7.37
2017-08-24T15:05:55.166Z,5.20
2017-08-24T15:08:21.194Z,5.97
2017-08-24T15:10:47.249Z,4.87
2017-08-24T15:13:13.549Z,7.70
2017-08-24T15:15:39.654Z,7.40
2017-08-24T15:18:05.893Z,4.05
2017-08-24T15:20:31.940Z,7.05
2017-08-24T15:22:57.974Z,5.68
2017-08-24T15:25:23.998Z,5.10
2017-08-24T15:27:50.055Z,7.55
2017-08-24T15:30:16.094Z,9.00
2017-08-24T15:32:42.171Z,5.62
2017-08-24T15:35:08.197Z,7.37
2017-08-24T15:37:34.279Z,6.78
2017-08-24T15:40:00.334Z,4.65
2017-08-24T15:42:26.349Z,10.25
2017-08-24T15:44:52.372Z,5.22
2017-08-24T15:47:18.445Z,7.00
2017-08-24T15:49:44.476Z,4.75
2017-08-24T15:52:10.562Z,9.10
2017-08-24T15:54:36.874Z,8.20
2017-08-24T15:57:02.911Z,6.13
2017-08-24T15:59:28.939Z,7.55
2017-08-24T16:01:54.985Z,13.60
2017-08-24T16:04:21.007Z,9.90
2017-08-24T16:06:47.065Z,6.72
2017-08-24T16:09:13.300Z,7.30
2017-08-24T16:11:39.342Z,7.10
2017-08-24T16:14:05.370Z,7.62
2017-08-24T16:16:31.782Z,9.55
2017-08-24T16:18:57.819Z,8.20
2017-08-24T16:21:23.852Z,8.33
2017-08-24T16:23:50.157Z,11.60
2017-08-24T16:26:16.174Z,10.75
2017-08-24T16:28:42.210Z,7.60
2017-08-24T16:31:08.273Z,10.27
2017-08-24T16:33:34.294Z,11.02
2017-08-24T16:36:00.314Z,11.23
2017-08-24T16:38:26.365Z,13.30
2017-08-24T16:40:52.424Z,10.43
2017-08-24T16:43:18.451Z,11.68
2017-08-24T16:45:44.489Z,9.82
2017-08-24T16:48:10.522Z,10.40
2017-08-24T16:50:36.566Z,11.50
2017-08-24T16:53:02.820Z,9.32
2017-08-24T16:55:28.841Z,16.10
2017-08-24T16:57:54.886Z,41.37
2017-08-24T17:00:20.903Z,69.03
2017-08-24T17:02:46.924Z,44.75
2017-08-24T17:05:12.962Z,21.58
2017-08-24T17:07:39.008Z,9.15
2017-08-24T17:10:05.018Z,8.45
2017-08-24T17:12:31.090Z,10.27
2017-08-24T17:14:57.143Z,13.50
2017-08-24T17:17:23.762Z,9.75
2017-08-24T17:19:50.066Z,11.93
2017-08-24T17:22:16.118Z,7.40
2017-08-24T17:24:42.136Z,10.27
2017-08-24T17:27:08.178Z,8.80
2017-08-24T17:29:34.226Z,10.40
2017-08-24T17:32:00.313Z,9.02
2017-08-24T17:34:26.374Z,7.00
2017-08-24T17:36:52.398Z,6.30
2017-08-24T17:39:18.418Z,7.47
2017-08-24T17:41:44.481Z,10.57
2017-08-24T17:44:10.514Z,9.82
2017-08-24T17:46:36.554Z,8.10
2017-08-24T17:49:02.939Z,8.85
2017-08-24T17:51:28.974Z,12.50
2017-08-24T17:53:55.008Z,6.73
2017-08-24T17:56:21.109Z,7.25
2017-08-24T17:58:47.214Z,4.93
2017-08-24T18:01:13.262Z,9.07
2017-08-24T18:03:39.339Z,10.67
2017-08-24T18:06:05.559Z,10.60
2017-08-24T18:08:31.592Z,8.13
2017-08-24T18:10:57.628Z,7.68
2017-08-24T18:13:23.740Z,6.70
2017-08-24T18:15:49.824Z,5.78
2017-08-24T18:18:16.120Z,5.67
2017-08-24T18:20:42.162Z,10.15
2017-08-24T18:23:08.215Z,6.75
2017-08-24T18:25:34.293Z,6.43
2017-08-24T18:28:00.317Z,7.62
2017-08-24T18:30:26.372Z,9.65
2017-08-24T18:32:52.471Z,8.05
2017-08-24T18:35:18.488Z,9.13
2017-08-24T18:37:44.546Z,8.25
2017-08-24T18:40:10.599Z,6.45
2017-08-24T18:42:36.631Z,8.77
2017-08-24T18:45:02.983Z,7.80
2017-08-24T18:47:29.027Z,6.60
2017-08-24T18:49:55.050Z,8.63
2017-08-24T18:52:21.168Z,10.43
2017-08-24T18:54:47.195Z,9.80
2017-08-24T18:57:13.228Z,12.82
2017-08-24T18:59:39.289Z,6.15
2017-08-24T19:02:05.330Z,8.07
2017-08-24T19:04:31.359Z,10.27
2017-08-24T19:06:57.433Z,7.68
2017-08-24T19:09:23.482Z,9.57
2017-08-24T19:11:49.558Z,9.00
2017-08-24T19:14:15.581Z,10.55
2017-08-24T19:16:41.637Z,9.00
2017-08-24T19:19:08.001Z,7.15
2017-08-24T19:21:34.026Z,10.57
2017-08-24T19:24:00.091Z,11.00
2017-08-24T19:26:26.139Z,10.13
2017-08-24T19:28:52.167Z,9.83
2017-08-24T19:31:18.226Z,9.63
2017-08-24T19:33:44.307Z,8.40
2017-08-24T19:36:10.327Z,9.75
2017-08-24T19:38:36.356Z,13.15
2017-08-24T19:41:02.503Z,8.30
2017-08-24T19:43:28.588Z,8.07
2017-08-24T19:45:54.644Z,14.90
2017-08-24T19:48:20.671Z,7.78
2017-08-24T19:50:46.722Z,14.25
2017-08-24T19:53:12.791Z,12.23
2017-08-24T19:55:38.900Z,5.90
2017-08-24T19:58:05.045Z,13.65
2017-08-24T20:00:31.150Z,10.97
2017-08-24T20:02:57.232Z,9.98
2017-08-24T20:05:23.314Z,11.23
2017-08-24T20:07:49.374Z,11.55
2017-08-24T20:10:15.471Z,10.00
2017-08-24T20:12:41.581Z,10.80
2017-08-24T20:15:07.619Z,14.43
2017-08-24T20:17:33.669Z,9.02
2017-08-24T20:19:59.754Z,14.93
2017-08-24T20:22:25.878Z,14.45
2017-08-24T20:24:51.902Z,13.77
2017-08-24T20:27:17.977Z,11.35
2017-08-24T20:29:43.994Z,10.77
2017-08-24T20:32:10.104Z,9.55
2017-08-24T20:34:36.362Z,13.32
2017-08-24T20:37:02.391Z,10.10
2017-08-24T20:39:28.419Z,9.15
2017-08-24T20:41:54.455Z,13.50
2017-08-24T20:44:20.551Z,14.02
2017-08-24T20:46:46.599Z,92.43
2017-08-24T20:49:12.662Z,80.18
2017-08-24T20:51:38.710Z,86.82
2017-08-24T20:54:04.735Z,64.62
2017-08-24T20:56:30.774Z,20.80
2017-08-24T20:58:56.814Z,10.27
2017-08-24T21:01:22.834Z,10.70
2017-08-24T21:03:48.871Z,14.60
2017-08-24T21:06:14.914Z,15.55
2017-08-24T21:08:41.112Z,10.38
2017-08-24T21:11:07.334Z,14.00
2017-08-24T21:13:33.370Z,17.42
2017-08-24T21:15:59.382Z,18.30
2017-08-24T21:18:25.679Z,13.52
2017-08-24T21:20:51.694Z,14.30
2017-08-24T21:23:17.726Z,16.08
2017-08-24T21:25:44.061Z,15.35
2017-08-24T21:28:10.123Z,15.38
2017-08-24T21:30:36.230Z,132.12
2017-08-24T21:33:02.832Z,25.92
2017-08-24T21:35:29.990Z,15.27
2017-08-24T21:37:56.815Z,19.17
2017-08-24T21:40:23.128Z,20.62
2017-08-24T21:42:49.498Z,14.85
2017-08-24T21:45:15.719Z,13.55
2017-08-24T21:47:42.711Z,17.60
2017-08-24T21:50:09.493Z,15.90
2017-08-24T21:52:35.912Z,15.63
2017-08-24T21:55:02.653Z,12.20
2017-08-24T21:57:28.923Z,15.77
2017-08-24T21:59:55.108Z,14.40
2017-08-24T22:02:21.494Z,13.27
2017-08-24T22:04:47.846Z,16.75
2017-08-24T22:07:14.028Z,15.82
2017-08-24T22:09:40.794Z,13.25
2017-08-24T22:12:06.917Z,14.00
2017-08-24T22:14:33.147Z,11.38
2017-08-24T22:16:59.530Z,13.60
2017-08-24T22:19:25.804Z,18.15
2017-08-24T22:21:52.032Z,12.80
2017-08-24T22:24:18.642Z,12.07
2017-08-24T22:26:45.140Z,12.13
2017-08-24T22:29:11.389Z,13.82
2017-08-24T22:31:37.485Z,16.65
2017-08-24T22:34:03.512Z,13.00
2017-08-24T22:36:29.545Z,14.13
2017-08-24T22:38:55.598Z,12.10
2017-08-24T22:41:21.635Z,14.38
2017-08-24T22:43:47.678Z,16.75
2017-08-24T22:46:13.730Z,14.10
2017-08-24T22:48:39.755Z,12.65
2017-08-24T22:51:05.779Z,14.90
2017-08-24T22:53:38.027Z,19.35
2017-08-24T22:56:10.113Z,19.17
2017-08-24T22:58:42.561Z,13.10
2017-08-24T23:01:14.584Z,16.42
2017-08-24T23:03:46.808Z,13.85
2017-08-24T23:06:12.863Z,13.50
2017-08-24T23:08:38.960Z,13.70
2017-08-24T23:11:05.021Z,15.60
2017-08-24T23:13:31.080Z,17.70
2017-08-24T23:15:57.110Z,15.07
2017-08-24T23:18:23.130Z,15.90
2017-08-24T23:20:49.186Z,15.85
2017-08-24T23:23:15.370Z,12.20
2017-08-24T23:25:41.407Z,15.93
2017-08-24T23:28:07.434Z,14.77
2017-08-24T23:30:34.266Z,11.90
2017-08-24T23:33:00.283Z,14.43
2017-08-24T23:35:26.342Z,13.88
2017-08-24T23:37:52.378Z,15.20
2017-08-24T23:40:18.410Z,15.73
2017-08-24T23:42:44.464Z,13.10
2017-08-24T23:45:10.489Z,15.18
2017-08-24T23:47:36.526Z,17.33
2017-08-24T23:50:02.590Z,15.40
2017-08-24T23:52:28.634Z,10.43
2017-08-24T23:54:54.680Z,16.17
2017-08-24T23:57:20.747Z,10.10
2017-08-24T23:59:46.790Z,11.20
